sensor_id;sensor_type;location;lat;lon;timestamp;temperature;humidity
27026;DHT22;14565;48.626;8.978;2023-03-05T00:00:10;1.40;99.90
27026;DHT22;14565;48.626;8.978;2023-03-05T00:02:36;1.40;99.90
27026;DHT22;14565;48.626;8.978;2023-03-05T00:05:02;1.40;99.90
27026;DHT22;14565;48.626;8.978;2023-03-05T00:07:27;1.30;99.90
27026;DHT22;14565;48.626;8.978;2023-03-05T00:09:53;1.30;99.90
27026;DHT22;14565;48.626;8.978;2023-03-05T00:12:18;1.30;99.90
27026;DHT22;14565;48.626;8.978;2023-03-05T00:14:44;1.30;99.90
27026;DHT22;14565;48.626;8.978;2023-03-05T00:17:10;1.40;99.90
27026;DHT22;14565;48.626;8.978;2023-03-05T00:19:35;1.40;99.90
27026;DHT22;14565;48.626;8.978;2023-03-05T00:22:01;1.40;99.90
27026;DHT22;14565;48.626;8.978;2023-03-05T00:24:27;1.40;99.90
27026;DHT22;14565;48.626;8.978;2023-03-05T00:26:52;1.30;99.90
27026;DHT22;14565;48.626;8.978;2023-03-05T00:29:19;1.40;99.90
27026;DHT22;14565;48.626;8.978;2023-03-05T00:31:47;1.40;99.90
27026;DHT22;14565;48.626;8.978;2023-03-05T00:34:15;1.40;99.90
27026;DHT22;14565;48.626;8.978;2023-03-05T00:36:42;1.40;99.90
27026;DHT22;14565;48.626;8.978;2023-03-05T00:39:07;1.40;99.90
27026;DHT22;14565;48.626;8.978;2023-03-05T00:41:34;1.40;99.90
27026;DHT22;14565;48.626;8.978;2023-03-05T00:43:59;1.40;99.90
27026;DHT22;14565;48.626;8.978;2023-03-05T00:46:25;1.30;99.90
27026;DHT22;14565;48.626;8.978;2023-03-05T00:48:52;1.30;99.90
27026;DHT22;14565;48.626;8.978;2023-03-05T00:51:18;1.20;99.90
27026;DHT22;14565;48.626;8.978;2023-03-05T00:53:44;1.30;99.90
27026;DHT22;14565;48.626;8.978;2023-03-05T00:56:10;1.30;99.90
27026;DHT22;14565;48.626;8.978;2023-03-05T00:58:36;1.20;99.90
27026;DHT22;14565;48.626;8.978;2023-03-05T01:01:02;1.20;99.90
27026;DHT22;14565;48.626;8.978;2023-03-05T01:03:29;1.20;99.90
27026;DHT22;14565;48.626;8.978;2023-03-05T01:05:55;1.20;99.90
27026;DHT22;14565;48.626;8.978;2023-03-05T01:08:20;1.20;99.90
27026;DHT22;14565;48.626;8.978;2023-03-05T01:10:46;1.20;99.90
27026;DHT22;14565;48.626;8.978;2023-03-05T01:13:12;1.20;99.90
27026;DHT22;14565;48.626;8.978;2023-03-05T01:15:37;1.20;99.90
27026;DHT22;14565;48.626;8.978;2023-03-05T01:18:03;1.30;99.90
27026;DHT22;14565;48.626;8.978;2023-03-05T01:20:29;1.20;99.90
27026;DHT22;14565;48.626;8.978;2023-03-05T01:22:54;1.20;99.90
27026;DHT22;14565;48.626;8.978;2023-03-05T01:25:20;1.20;99.90
27026;DHT22;14565;48.626;8.978;2023-03-05T01:27:46;1.20;99.90
27026;DHT22;14565;48.626;8.978;2023-03-05T01:30:13;1.20;99.90
27026;DHT22;14565;48.626;8.978;2023-03-05T01:32:39;1.20;99.90
27026;DHT22;14565;48.626;8.978;2023-03-05T01:35:05;1.20;99.90
27026;DHT22;14565;48.626;8.978;2023-03-05T01:37:31;1.20;99.90
27026;DHT22;14565;48.626;8.978;2023-03-05T01:39:57;1.30;99.90
27026;DHT22;14565;48.626;8.978;2023-03-05T01:42:23;1.30;99.90
27026;DHT22;14565;48.626;8.978;2023-03-05T01:45:14;1.30;99.90
27026;DHT22;14565;48.626;8.978;2023-03-05T01:47:40;1.20;99.90
27026;DHT22;14565;48.626;8.978;2023-03-05T01:50:09;1.20;99.90
27026;DHT22;14565;48.626;8.978;2023-03-05T01:52:38;1.30;99.90
27026;DHT22;14565;48.626;8.978;2023-03-05T01:55:19;1.30;99.90
27026;DHT22;14565;48.626;8.978;2023-03-05T01:57:49;1.30;99.90
27026;DHT22;14565;48.626;8.978;2023-03-05T02:00:23;1.30;99.90
27026;DHT22;14565;48.626;8.978;2023-03-05T02:02:50;1.20;99.90
27026;DHT22;14565;48.626;8.978;2023-03-05T02:05:19;1.20;99.90
27026;DHT22;14565;48.626;8.978;2023-03-05T02:07:55;1.30;99.90
27026;DHT22;14565;48.626;8.978;2023-03-05T02:10:45;1.30;99.90
27026;DHT22;14565;48.626;8.978;2023-03-05T02:13:15;1.20;99.90
27026;DHT22;14565;48.626;8.978;2023-03-05T02:15:42;1.10;99.90
27026;DHT22;14565;48.626;8.978;2023-03-05T02:18:08;1.10;99.90
27026;DHT22;14565;48.626;8.978;2023-03-05T02:23:12;1.10;99.90
27026;DHT22;14565;48.626;8.978;2023-03-05T02:25:38;1.10;99.90
27026;DHT22;14565;48.626;8.978;2023-03-05T02:30:37;1.20;99.90
27026;DHT22;14565;48.626;8.978;2023-03-05T02:33:03;1.30;99.90
27026;DHT22;14565;48.626;8.978;2023-03-05T02:35:29;1.30;99.90
27026;DHT22;14565;48.626;8.978;2023-03-05T02:37:55;1.30;99.90
27026;DHT22;14565;48.626;8.978;2023-03-05T02:40:24;1.30;99.90
27026;DHT22;14565;48.626;8.978;2023-03-05T02:42:51;1.30;99.90
27026;DHT22;14565;48.626;8.978;2023-03-05T02:45:17;1.20;99.90
27026;DHT22;14565;48.626;8.978;2023-03-05T02:47:43;1.30;99.90
27026;DHT22;14565;48.626;8.978;2023-03-05T02:50:09;1.20;99.90
27026;DHT22;14565;48.626;8.978;2023-03-05T02:52:36;1.30;99.90
27026;DHT22;14565;48.626;8.978;2023-03-05T02:55:02;1.30;99.90
27026;DHT22;14565;48.626;8.978;2023-03-05T02:57:28;1.30;99.90
27026;DHT22;14565;48.626;8.978;2023-03-05T02:59:53;1.40;99.90
27026;DHT22;14565;48.626;8.978;2023-03-05T03:02:19;1.30;99.90
27026;DHT22;14565;48.626;8.978;2023-03-05T03:04:45;1.40;99.90
27026;DHT22;14565;48.626;8.978;2023-03-05T03:07:12;1.30;99.90
27026;DHT22;14565;48.626;8.978;2023-03-05T03:09:38;1.40;99.90
27026;DHT22;14565;48.626;8.978;2023-03-05T03:12:05;1.30;99.90
27026;DHT22;14565;48.626;8.978;2023-03-05T03:14:32;1.30;99.90
27026;DHT22;14565;48.626;8.978;2023-03-05T03:17:02;1.30;99.90
27026;DHT22;14565;48.626;8.978;2023-03-05T03:19:27;1.30;99.90
27026;DHT22;14565;48.626;8.978;2023-03-05T03:21:53;1.30;99.90
27026;DHT22;14565;48.626;8.978;2023-03-05T03:24:19;1.50;99.90
27026;DHT22;14565;48.626;8.978;2023-03-05T03:26:45;1.40;99.90
27026;DHT22;14565;48.626;8.978;2023-03-05T03:29:10;1.40;99.90
27026;DHT22;14565;48.626;8.978;2023-03-05T03:31:36;1.40;99.90
27026;DHT22;14565;48.626;8.978;2023-03-05T03:34:04;1.40;99.90
27026;DHT22;14565;48.626;8.978;2023-03-05T03:36:30;1.30;99.90
27026;DHT22;14565;48.626;8.978;2023-03-05T03:38:56;1.40;99.90
27026;DHT22;14565;48.626;8.978;2023-03-05T03:41:22;1.40;99.90
27026;DHT22;14565;48.626;8.978;2023-03-05T03:43:47;1.30;99.90
27026;DHT22;14565;48.626;8.978;2023-03-05T03:46:13;1.30;99.90
27026;DHT22;14565;48.626;8.978;2023-03-05T03:48:38;1.40;99.90
27026;DHT22;14565;48.626;8.978;2023-03-05T03:51:06;1.40;99.90
27026;DHT22;14565;48.626;8.978;2023-03-05T03:53:32;1.40;99.90
27026;DHT22;14565;48.626;8.978;2023-03-05T03:55:58;1.40;99.90
27026;DHT22;14565;48.626;8.978;2023-03-05T03:58:24;1.40;99.90
27026;DHT22;14565;48.626;8.978;2023-03-05T04:00:50;1.40;99.90
27026;DHT22;14565;48.626;8.978;2023-03-05T04:03:15;1.50;99.90
27026;DHT22;14565;48.626;8.978;2023-03-05T04:05:41;1.50;99.90
27026;DHT22;14565;48.626;8.978;2023-03-05T04:08:06;1.50;99.90
27026;DHT22;14565;48.626;8.978;2023-03-05T04:10:37;1.40;99.90
27026;DHT22;14565;48.626;8.978;2023-03-05T04:13:04;1.40;99.90
27026;DHT22;14565;48.626;8.978;2023-03-05T04:15:30;1.40;99.90
27026;DHT22;14565;48.626;8.978;2023-03-05T04:17:55;1.40;99.90
27026;DHT22;14565;48.626;8.978;2023-03-05T04:20:21;1.30;99.90
27026;DHT22;14565;48.626;8.978;2023-03-05T04:22:46;1.30;99.90
27026;DHT22;14565;48.626;8.978;2023-03-05T04:25:12;1.40;99.90
27026;DHT22;14565;48.626;8.978;2023-03-05T04:27:38;1.40;99.90
27026;DHT22;14565;48.626;8.978;2023-03-05T04:30:05;1.30;99.90
27026;DHT22;14565;48.626;8.978;2023-03-05T04:32:31;1.30;99.90
27026;DHT22;14565;48.626;8.978;2023-03-05T04:34:57;1.30;99.90
27026;DHT22;14565;48.626;8.978;2023-03-05T04:37:24;1.40;99.90
27026;DHT22;14565;48.626;8.978;2023-03-05T04:39:50;1.40;99.90
27026;DHT22;14565;48.626;8.978;2023-03-05T04:42:16;1.50;99.90
27026;DHT22;14565;48.626;8.978;2023-03-05T04:44:43;1.50;99.90
27026;DHT22;14565;48.626;8.978;2023-03-05T04:47:09;1.50;99.90
27026;DHT22;14565;48.626;8.978;2023-03-05T04:49:34;1.50;99.90
27026;DHT22;14565;48.626;8.978;2023-03-05T04:52:00;1.40;99.90
27026;DHT22;14565;48.626;8.978;2023-03-05T04:54:25;1.40;99.90
27026;DHT22;14565;48.626;8.978;2023-03-05T04:56:52;1.50;99.90
27026;DHT22;14565;48.626;8.978;2023-03-05T04:59:18;1.50;99.90
27026;DHT22;14565;48.626;8.978;2023-03-05T05:01:43;1.50;99.90
27026;DHT22;14565;48.626;8.978;2023-03-05T05:04:09;1.50;99.90
27026;DHT22;14565;48.626;8.978;2023-03-05T05:06:35;1.40;99.90
27026;DHT22;14565;48.626;8.978;2023-03-05T05:09:00;1.40;99.90
27026;DHT22;14565;48.626;8.978;2023-03-05T05:11:26;1.40;99.90
27026;DHT22;14565;48.626;8.978;2023-03-05T05:13:52;1.40;99.90
27026;DHT22;14565;48.626;8.978;2023-03-05T05:16:17;1.50;99.90
27026;DHT22;14565;48.626;8.978;2023-03-05T05:18:43;1.40;99.90
27026;DHT22;14565;48.626;8.978;2023-03-05T05:21:11;1.40;99.90
27026;DHT22;14565;48.626;8.978;2023-03-05T05:23:37;1.40;99.90
27026;DHT22;14565;48.626;8.978;2023-03-05T05:26:04;1.40;99.90
27026;DHT22;14565;48.626;8.978;2023-03-05T05:28:30;1.40;99.90
27026;DHT22;14565;48.626;8.978;2023-03-05T05:30:56;1.50;99.90
27026;DHT22;14565;48.626;8.978;2023-03-05T05:33:22;1.40;99.90
27026;DHT22;14565;48.626;8.978;2023-03-05T05:35:48;1.40;99.90
27026;DHT22;14565;48.626;8.978;2023-03-05T05:38:14;1.30;99.90
27026;DHT22;14565;48.626;8.978;2023-03-05T05:40:39;1.30;99.90
27026;DHT22;14565;48.626;8.978;2023-03-05T05:43:05;1.40;99.90
27026;DHT22;14565;48.626;8.978;2023-03-05T05:45:31;1.40;99.90
27026;DHT22;14565;48.626;8.978;2023-03-05T05:47:57;1.40;99.90
27026;DHT22;14565;48.626;8.978;2023-03-05T05:50:23;1.40;99.90
27026;DHT22;14565;48.626;8.978;2023-03-05T05:52:50;1.40;99.90
27026;DHT22;14565;48.626;8.978;2023-03-05T05:55:16;1.40;99.90
27026;DHT22;14565;48.626;8.978;2023-03-05T05:57:42;1.40;99.90
27026;DHT22;14565;48.626;8.978;2023-03-05T06:00:09;1.30;99.90
27026;DHT22;14565;48.626;8.978;2023-03-05T06:02:39;1.30;99.90
27026;DHT22;14565;48.626;8.978;2023-03-05T06:05:07;1.40;99.90
27026;DHT22;14565;48.626;8.978;2023-03-05T06:07:34;1.40;99.90
27026;DHT22;14565;48.626;8.978;2023-03-05T06:10:00;1.40;99.90
27026;DHT22;14565;48.626;8.978;2023-03-05T06:12:25;1.40;99.90
27026;DHT22;14565;48.626;8.978;2023-03-05T06:14:51;1.30;99.90
27026;DHT22;14565;48.626;8.978;2023-03-05T06:17:18;1.40;99.90
27026;DHT22;14565;48.626;8.978;2023-03-05T06:19:44;1.40;99.90
27026;DHT22;14565;48.626;8.978;2023-03-05T06:22:10;1.30;99.90
27026;DHT22;14565;48.626;8.978;2023-03-05T06:24:37;1.40;99.90
27026;DHT22;14565;48.626;8.978;2023-03-05T06:27:03;1.40;99.90
27026;DHT22;14565;48.626;8.978;2023-03-05T06:29:29;1.40;99.90
27026;DHT22;14565;48.626;8.978;2023-03-05T06:31:55;1.40;99.90
27026;DHT22;14565;48.626;8.978;2023-03-05T06:34:21;1.50;99.90
27026;DHT22;14565;48.626;8.978;2023-03-05T06:36:46;1.50;99.90
27026;DHT22;14565;48.626;8.978;2023-03-05T06:39:12;1.50;99.90
27026;DHT22;14565;48.626;8.978;2023-03-05T06:41:38;1.50;99.90
27026;DHT22;14565;48.626;8.978;2023-03-05T06:44:03;1.50;99.90
27026;DHT22;14565;48.626;8.978;2023-03-05T06:46:31;1.50;99.90
27026;DHT22;14565;48.626;8.978;2023-03-05T06:48:59;1.50;99.90
27026;DHT22;14565;48.626;8.978;2023-03-05T06:51:28;1.50;99.90
27026;DHT22;14565;48.626;8.978;2023-03-05T06:53:57;1.50;99.90
27026;DHT22;14565;48.626;8.978;2023-03-05T06:56:23;1.60;99.90
27026;DHT22;14565;48.626;8.978;2023-03-05T06:58:50;1.60;99.90
27026;DHT22;14565;48.626;8.978;2023-03-05T07:01:17;1.60;99.90
27026;DHT22;14565;48.626;8.978;2023-03-05T07:03:43;1.70;99.90
27026;DHT22;14565;48.626;8.978;2023-03-05T07:06:11;1.70;99.90
27026;DHT22;14565;48.626;8.978;2023-03-05T07:08:38;1.70;99.90
27026;DHT22;14565;48.626;8.978;2023-03-05T07:11:08;1.70;99.90
27026;DHT22;14565;48.626;8.978;2023-03-05T07:13:34;1.80;99.90
27026;DHT22;14565;48.626;8.978;2023-03-05T07:16:04;1.80;99.90
27026;DHT22;14565;48.626;8.978;2023-03-05T07:18:30;1.80;99.90
27026;DHT22;14565;48.626;8.978;2023-03-05T07:21:01;1.90;99.90
27026;DHT22;14565;48.626;8.978;2023-03-05T07:23:27;1.90;99.90
27026;DHT22;14565;48.626;8.978;2023-03-05T07:25:53;1.90;99.90
27026;DHT22;14565;48.626;8.978;2023-03-05T07:28:18;1.90;99.90
27026;DHT22;14565;48.626;8.978;2023-03-05T07:30:44;1.90;99.90
27026;DHT22;14565;48.626;8.978;2023-03-05T07:33:09;1.90;99.90
27026;DHT22;14565;48.626;8.978;2023-03-05T07:35:39;1.90;99.90
27026;DHT22;14565;48.626;8.978;2023-03-05T07:38:05;2.00;99.90
27026;DHT22;14565;48.626;8.978;2023-03-05T07:40:31;2.10;99.90
27026;DHT22;14565;48.626;8.978;2023-03-05T07:42:56;2.10;99.90
27026;DHT22;14565;48.626;8.978;2023-03-05T07:45:22;2.10;99.90
27026;DHT22;14565;48.626;8.978;2023-03-05T07:47:47;2.20;99.90
27026;DHT22;14565;48.626;8.978;2023-03-05T07:50:13;2.00;99.90
27026;DHT22;14565;48.626;8.978;2023-03-05T07:52:39;2.10;99.90
27026;DHT22;14565;48.626;8.978;2023-03-05T07:55:04;2.20;99.90
27026;DHT22;14565;48.626;8.978;2023-03-05T07:57:30;2.10;99.90
27026;DHT22;14565;48.626;8.978;2023-03-05T07:59:56;2.20;99.90
27026;DHT22;14565;48.626;8.978;2023-03-05T08:02:21;2.20;99.90
27026;DHT22;14565;48.626;8.978;2023-03-05T08:04:47;2.40;99.90
27026;DHT22;14565;48.626;8.978;2023-03-05T08:07:14;2.40;99.90
27026;DHT22;14565;48.626;8.978;2023-03-05T08:09:40;2.50;99.90
27026;DHT22;14565;48.626;8.978;2023-03-05T08:12:07;2.50;99.90
27026;DHT22;14565;48.626;8.978;2023-03-05T08:14:34;2.60;99.90
27026;DHT22;14565;48.626;8.978;2023-03-05T08:16:59;2.60;99.90
27026;DHT22;14565;48.626;8.978;2023-03-05T08:19:25;2.70;99.90
27026;DHT22;14565;48.626;8.978;2023-03-05T08:21:51;2.70;99.90
27026;DHT22;14565;48.626;8.978;2023-03-05T08:24:16;2.60;99.90
27026;DHT22;14565;48.626;8.978;2023-03-05T08:26:42;2.80;99.90
27026;DHT22;14565;48.626;8.978;2023-03-05T08:29:09;2.80;99.90
27026;DHT22;14565;48.626;8.978;2023-03-05T08:31:35;2.80;99.90
27026;DHT22;14565;48.626;8.978;2023-03-05T08:34:03;3.00;99.90
27026;DHT22;14565;48.626;8.978;2023-03-05T08:36:29;2.90;99.90
27026;DHT22;14565;48.626;8.978;2023-03-05T08:38:55;2.90;99.90
27026;DHT22;14565;48.626;8.978;2023-03-05T08:41:21;2.90;99.90
27026;DHT22;14565;48.626;8.978;2023-03-05T08:43:46;3.10;99.90
27026;DHT22;14565;48.626;8.978;2023-03-05T08:46:14;3.10;99.90
27026;DHT22;14565;48.626;8.978;2023-03-05T08:48:40;3.30;99.90
27026;DHT22;14565;48.626;8.978;2023-03-05T08:51:08;3.20;99.90
27026;DHT22;14565;48.626;8.978;2023-03-05T08:53:34;3.50;99.90
27026;DHT22;14565;48.626;8.978;2023-03-05T08:55:59;3.70;99.90
27026;DHT22;14565;48.626;8.978;2023-03-05T08:58:25;3.60;99.90
27026;DHT22;14565;48.626;8.978;2023-03-05T09:00:51;3.50;99.90
27026;DHT22;14565;48.626;8.978;2023-03-05T09:03:17;3.70;99.90
27026;DHT22;14565;48.626;8.978;2023-03-05T09:05:43;3.80;99.90
27026;DHT22;14565;48.626;8.978;2023-03-05T09:08:08;3.70;99.90
27026;DHT22;14565;48.626;8.978;2023-03-05T09:10:34;3.70;99.90
27026;DHT22;14565;48.626;8.978;2023-03-05T09:13:00;3.90;99.90
27026;DHT22;14565;48.626;8.978;2023-03-05T09:15:25;4.00;99.90
27026;DHT22;14565;48.626;8.978;2023-03-05T09:17:51;4.10;99.90
27026;DHT22;14565;48.626;8.978;2023-03-05T09:20:17;4.10;99.90
27026;DHT22;14565;48.626;8.978;2023-03-05T09:22:43;4.30;99.90
27026;DHT22;14565;48.626;8.978;2023-03-05T09:25:10;4.40;99.90
27026;DHT22;14565;48.626;8.978;2023-03-05T09:27:37;4.40;99.90
27026;DHT22;14565;48.626;8.978;2023-03-05T09:30:04;4.00;99.90
27026;DHT22;14565;48.626;8.978;2023-03-05T09:32:30;4.10;99.90
27026;DHT22;14565;48.626;8.978;2023-03-05T09:34:56;4.60;99.90
27026;DHT22;14565;48.626;8.978;2023-03-05T09:37:22;4.40;99.90
27026;DHT22;14565;48.626;8.978;2023-03-05T09:39:47;4.50;99.90
27026;DHT22;14565;48.626;8.978;2023-03-05T09:50:17;4.80;99.90
27026;DHT22;14565;48.626;8.978;2023-03-05T09:52:54;5.00;99.90
27026;DHT22;14565;48.626;8.978;2023-03-05T09:55:26;4.80;99.90
27026;DHT22;14565;48.626;8.978;2023-03-05T09:57:57;4.50;99.90
27026;DHT22;14565;48.626;8.978;2023-03-05T10:00:49;4.60;99.90
27026;DHT22;14565;48.626;8.978;2023-03-05T10:03:26;4.80;99.90
27026;DHT22;14565;48.626;8.978;2023-03-05T10:08:45;4.70;99.90
27026;DHT22;14565;48.626;8.978;2023-03-05T10:11:32;4.70;99.90
27026;DHT22;14565;48.626;8.978;2023-03-05T10:14:00;4.80;99.90
27026;DHT22;14565;48.626;8.978;2023-03-05T10:21:45;4.90;99.90
27026;DHT22;14565;48.626;8.978;2023-03-05T10:27:04;4.50;99.90
27026;DHT22;14565;48.626;8.978;2023-03-05T10:40:45;4.60;99.90
27026;DHT22;14565;48.626;8.978;2023-03-05T10:45:57;4.60;99.90
27026;DHT22;14565;48.626;8.978;2023-03-05T10:51:27;4.60;99.90
27026;DHT22;14565;48.626;8.978;2023-03-05T10:53:56;4.60;99.90
27026;DHT22;14565;48.626;8.978;2023-03-05T10:56:25;4.60;99.90
27026;DHT22;14565;48.626;8.978;2023-03-05T10:58:52;4.50;99.90
27026;DHT22;14565;48.626;8.978;2023-03-05T11:01:21;4.30;99.90
27026;DHT22;14565;48.626;8.978;2023-03-05T11:03:55;4.20;99.90
27026;DHT22;14565;48.626;8.978;2023-03-05T11:06:45;4.20;99.90
27026;DHT22;14565;48.626;8.978;2023-03-05T11:14:36;4.40;99.90
27026;DHT22;14565;48.626;8.978;2023-03-05T11:19:57;4.60;99.90
27026;DHT22;14565;48.626;8.978;2023-03-05T11:22:39;4.70;99.90
27026;DHT22;14565;48.626;8.978;2023-03-05T11:25:14;4.60;99.90
27026;DHT22;14565;48.626;8.978;2023-03-05T11:27:49;4.60;99.90
27026;DHT22;14565;48.626;8.978;2023-03-05T11:30:35;4.50;99.90
27026;DHT22;14565;48.626;8.978;2023-03-05T11:33:19;4.60;99.90
27026;DHT22;14565;48.626;8.978;2023-03-05T11:35:46;4.50;99.90
27026;DHT22;14565;48.626;8.978;2023-03-05T11:38:24;4.40;99.90
27026;DHT22;14565;48.626;8.978;2023-03-05T11:40:52;4.20;99.90
27026;DHT22;14565;48.626;8.978;2023-03-05T11:43:20;4.10;99.90
27026;DHT22;14565;48.626;8.978;2023-03-05T11:45:46;3.90;99.90
27026;DHT22;14565;48.626;8.978;2023-03-05T11:48:29;3.80;99.90
27026;DHT22;14565;48.626;8.978;2023-03-05T11:51:12;3.80;99.90
27026;DHT22;14565;48.626;8.978;2023-03-05T11:53:39;3.80;99.90
27026;DHT22;14565;48.626;8.978;2023-03-05T11:59:39;3.50;99.90
27026;DHT22;14565;48.626;8.978;2023-03-05T12:01:49;3.50;99.90
27026;DHT22;14565;48.626;8.978;2023-03-05T12:04:17;3.50;99.90
27026;DHT22;14565;48.626;8.978;2023-03-05T12:06:49;3.50;99.90
27026;DHT22;14565;48.626;8.978;2023-03-05T12:11:57;3.50;99.90
27026;DHT22;14565;48.626;8.978;2023-03-05T12:14:38;3.50;99.90
27026;DHT22;14565;48.626;8.978;2023-03-05T12:17:13;3.40;99.90
27026;DHT22;14565;48.626;8.978;2023-03-05T12:22:24;3.40;99.90
27026;DHT22;14565;48.626;8.978;2023-03-05T12:24:51;3.30;99.90
27026;DHT22;14565;48.626;8.978;2023-03-05T12:27:34;3.20;99.90
27026;DHT22;14565;48.626;8.978;2023-03-05T12:30:02;3.40;99.90
27026;DHT22;14565;48.626;8.978;2023-03-05T12:35:00;3.60;99.90
27026;DHT22;14565;48.626;8.978;2023-03-05T12:40:39;3.30;99.90
27026;DHT22;14565;48.626;8.978;2023-03-05T12:45:25;3.20;99.90
27026;DHT22;14565;48.626;8.978;2023-03-05T12:55:37;3.10;99.90
27026;DHT22;14565;48.626;8.978;2023-03-05T12:58:18;3.30;99.90
27026;DHT22;14565;48.626;8.978;2023-03-05T13:00:46;3.40;99.90
27026;DHT22;14565;48.626;8.978;2023-03-05T13:03:26;3.40;99.90
27026;DHT22;14565;48.626;8.978;2023-03-05T13:05:56;3.30;99.90
27026;DHT22;14565;48.626;8.978;2023-03-05T13:08:24;3.20;99.90
27026;DHT22;14565;48.626;8.978;2023-03-05T13:11:10;3.20;99.90
27026;DHT22;14565;48.626;8.978;2023-03-05T13:13:42;3.40;99.90
27026;DHT22;14565;48.626;8.978;2023-03-05T13:19:16;3.30;99.90
27026;DHT22;14565;48.626;8.978;2023-03-05T13:21:42;3.50;99.90
27026;DHT22;14565;48.626;8.978;2023-03-05T13:24:16;3.70;99.90
27026;DHT22;14565;48.626;8.978;2023-03-05T13:26:42;3.50;99.90
27026;DHT22;14565;48.626;8.978;2023-03-05T13:29:19;3.60;99.90
27026;DHT22;14565;48.626;8.978;2023-03-05T13:31:49;3.60;99.90
27026;DHT22;14565;48.626;8.978;2023-03-05T13:34:34;3.50;99.90
27026;DHT22;14565;48.626;8.978;2023-03-05T13:37:05;3.80;99.90
27026;DHT22;14565;48.626;8.978;2023-03-05T13:39:38;3.60;99.90
27026;DHT22;14565;48.626;8.978;2023-03-05T13:42:15;3.70;99.90
27026;DHT22;14565;48.626;8.978;2023-03-05T13:44:41;3.70;99.90
27026;DHT22;14565;48.626;8.978;2023-03-05T13:47:17;3.50;99.90
27026;DHT22;14565;48.626;8.978;2023-03-05T13:49:43;3.60;99.90
27026;DHT22;14565;48.626;8.978;2023-03-05T13:52:10;3.60;99.90
27026;DHT22;14565;48.626;8.978;2023-03-05T13:54:36;3.80;99.90
27026;DHT22;14565;48.626;8.978;2023-03-05T13:57:05;3.90;99.90
27026;DHT22;14565;48.626;8.978;2023-03-05T13:59:34;4.20;99.90
27026;DHT22;14565;48.626;8.978;2023-03-05T14:02:13;4.20;99.90
27026;DHT22;14565;48.626;8.978;2023-03-05T14:04:41;4.20;99.90
27026;DHT22;14565;48.626;8.978;2023-03-05T14:09:50;3.70;99.90
27026;DHT22;14565;48.626;8.978;2023-03-05T14:15:00;3.80;99.90
27026;DHT22;14565;48.626;8.978;2023-03-05T14:17:37;3.60;99.90
27026;DHT22;14565;48.626;8.978;2023-03-05T14:22:41;3.60;99.90
27026;DHT22;14565;48.626;8.978;2023-03-05T14:25:34;3.50;99.90
27026;DHT22;14565;48.626;8.978;2023-03-05T14:28:26;3.80;99.90
27026;DHT22;14565;48.626;8.978;2023-03-05T14:30:54;4.00;99.90
27026;DHT22;14565;48.626;8.978;2023-03-05T14:33:30;4.00;99.90
27026;DHT22;14565;48.626;8.978;2023-03-05T14:35:58;3.90;99.90
27026;DHT22;14565;48.626;8.978;2023-03-05T14:38:30;3.80;99.90
27026;DHT22;14565;48.626;8.978;2023-03-05T14:40:56;3.90;99.90
27026;DHT22;14565;48.626;8.978;2023-03-05T14:43:22;3.80;99.90
27026;DHT22;14565;48.626;8.978;2023-03-05T14:45:48;3.80;99.90
27026;DHT22;14565;48.626;8.978;2023-03-05T14:48:16;3.90;99.90
27026;DHT22;14565;48.626;8.978;2023-03-05T14:50:53;3.80;99.90
27026;DHT22;14565;48.626;8.978;2023-03-05T14:53:23;3.80;99.90
27026;DHT22;14565;48.626;8.978;2023-03-05T14:55:52;3.80;99.90
27026;DHT22;14565;48.626;8.978;2023-03-05T14:58:23;3.60;99.90
27026;DHT22;14565;48.626;8.978;2023-03-05T15:00:51;3.60;99.90
27026;DHT22;14565;48.626;8.978;2023-03-05T15:03:17;3.70;99.90
27026;DHT22;14565;48.626;8.978;2023-03-05T15:05:46;3.60;99.90
27026;DHT22;14565;48.626;8.978;2023-03-05T15:08:32;3.60;99.90
27026;DHT22;14565;48.626;8.978;2023-03-05T15:10:59;3.60;99.90
27026;DHT22;14565;48.626;8.978;2023-03-05T15:13:24;3.80;99.90
27026;DHT22;14565;48.626;8.978;2023-03-05T15:15:51;3.70;99.90
27026;DHT22;14565;48.626;8.978;2023-03-05T15:18:19;3.50;99.90
27026;DHT22;14565;48.626;8.978;2023-03-05T15:20:45;3.40;99.90
27026;DHT22;14565;48.626;8.978;2023-03-05T15:23:13;3.40;99.90
27026;DHT22;14565;48.626;8.978;2023-03-05T15:25:39;3.50;99.90
27026;DHT22;14565;48.626;8.978;2023-03-05T15:28:05;3.60;99.90
27026;DHT22;14565;48.626;8.978;2023-03-05T15:30:40;3.60;99.90
27026;DHT22;14565;48.626;8.978;2023-03-05T15:33:08;3.60;99.90
27026;DHT22;14565;48.626;8.978;2023-03-05T15:35:35;3.50;99.90
27026;DHT22;14565;48.626;8.978;2023-03-05T15:38:01;3.40;99.90
27026;DHT22;14565;48.626;8.978;2023-03-05T15:40:27;3.60;99.90
27026;DHT22;14565;48.626;8.978;2023-03-05T15:42:54;3.40;99.90
27026;DHT22;14565;48.626;8.978;2023-03-05T15:45:20;3.40;99.90
27026;DHT22;14565;48.626;8.978;2023-03-05T15:47:49;3.40;99.90
27026;DHT22;14565;48.626;8.978;2023-03-05T15:50:15;3.40;99.90
27026;DHT22;14565;48.626;8.978;2023-03-05T15:52:40;3.20;99.90
27026;DHT22;14565;48.626;8.978;2023-03-05T15:55:07;3.30;99.90
27026;DHT22;14565;48.626;8.978;2023-03-05T15:57:36;3.40;99.90
27026;DHT22;14565;48.626;8.978;2023-03-05T16:00:05;3.30;99.90
27026;DHT22;14565;48.626;8.978;2023-03-05T16:02:31;3.20;99.90
27026;DHT22;14565;48.626;8.978;2023-03-05T16:04:57;3.20;99.90
27026;DHT22;14565;48.626;8.978;2023-03-05T16:07:23;3.10;99.90
27026;DHT22;14565;48.626;8.978;2023-03-05T16:09:49;3.10;99.90
27026;DHT22;14565;48.626;8.978;2023-03-05T16:12:19;3.20;99.90
27026;DHT22;14565;48.626;8.978;2023-03-05T16:14:46;3.40;99.90
27026;DHT22;14565;48.626;8.978;2023-03-05T16:17:12;3.50;99.90
27026;DHT22;14565;48.626;8.978;2023-03-05T16:19:41;3.50;99.90
27026;DHT22;14565;48.626;8.978;2023-03-05T16:22:08;3.20;99.90
27026;DHT22;14565;48.626;8.978;2023-03-05T16:24:34;3.10;99.90
27026;DHT22;14565;48.626;8.978;2023-03-05T16:27:00;3.10;99.90
27026;DHT22;14565;48.626;8.978;2023-03-05T16:29:25;3.10;99.90
27026;DHT22;14565;48.626;8.978;2023-03-05T16:31:53;3.00;99.90
27026;DHT22;14565;48.626;8.978;2023-03-05T16:34:19;3.10;99.90
27026;DHT22;14565;48.626;8.978;2023-03-05T16:36:49;3.10;99.90
27026;DHT22;14565;48.626;8.978;2023-03-05T16:39:20;3.10;99.90
27026;DHT22;14565;48.626;8.978;2023-03-05T16:41:46;3.00;99.90
27026;DHT22;14565;48.626;8.978;2023-03-05T16:44:12;2.80;99.90
27026;DHT22;14565;48.626;8.978;2023-03-05T16:46:38;2.80;99.90
27026;DHT22;14565;48.626;8.978;2023-03-05T16:49:06;2.80;99.90
27026;DHT22;14565;48.626;8.978;2023-03-05T16:51:33;2.90;99.90
27026;DHT22;14565;48.626;8.978;2023-03-05T16:53:58;2.90;99.90
27026;DHT22;14565;48.626;8.978;2023-03-05T16:56:24;2.80;99.90
27026;DHT22;14565;48.626;8.978;2023-03-05T16:58:49;2.90;99.90
27026;DHT22;14565;48.626;8.978;2023-03-05T17:01:18;2.80;99.90
27026;DHT22;14565;48.626;8.978;2023-03-05T17:03:44;2.80;99.90
27026;DHT22;14565;48.626;8.978;2023-03-05T17:06:21;2.70;99.90
27026;DHT22;14565;48.626;8.978;2023-03-05T17:08:49;2.70;99.90
27026;DHT22;14565;48.626;8.978;2023-03-05T17:11:15;2.60;99.90
27026;DHT22;14565;48.626;8.978;2023-03-05T17:13:41;2.60;99.90